Time;durP1;ratioP1;P1;durP2;ratioP2;P2;SDS_P1;SDS_P2;PMS_P1;PMS_P2;Temp;Humidity;BMP_temperature;BMP_pressure;BME280_temperature;BME280_humidity;BME280_pressure;Samples;Min_cycle;Max_cycle;Signal;HPM_P1;HPM_P2
2023/07/13 00:01:51;;;;;;;3.28;1.40;;;17.60;99.90;;;;;;5097473;28;20114;-83
2023/07/13 00:04:24;;;;;;;2.60;1.58;;;17.50;99.90;;;;;;5097463;28;20028;-83
2023/07/13 00:06:51;;;;;;;3.53;1.58;;;17.40;99.90;;;;;;5115647;28;20393;-83
2023/07/13 00:09:18;;;;;;;3.45;1.55;;;17.40;99.90;;;;;;5115798;28;20031;-83
2023/07/13 00:11:47;;;;;;;5.00;1.65;;;17.30;99.90;;;;;;5096673;28;20027;-84
2023/07/13 00:14:15;;;;;;;4.28;1.90;;;17.20;99.90;;;;;;5076500;28;20028;-84
2023/07/13 00:16:43;;;;;;;4.30;1.50;;;17.20;99.90;;;;;;5090548;28;20032;-84
2023/07/13 00:19:11;;;;;;;4.00;1.90;;;17.10;99.90;;;;;;5066723;28;20516;-84
2023/07/13 00:21:40;;;;;;;2.63;1.48;;;17.10;99.90;;;;;;5078323;28;20035;-84
2023/07/13 00:24:07;;;;;;;3.03;1.50;;;17.10;99.90;;;;;;5061919;28;20059;-85
2023/07/13 00:26:33;;;;;;;2.83;1.40;;;17.10;99.90;;;;;;5095068;28;20398;-84
2023/07/13 00:28:59;;;;;;;3.03;1.58;;;17.10;99.90;;;;;;5079468;28;20058;-84
2023/07/13 00:31:25;;;;;;;3.20;1.38;;;17.10;99.90;;;;;;5097638;28;20446;-84
2023/07/13 00:33:51;;;;;;;3.47;1.40;;;17.20;99.90;;;;;;5096473;28;20031;-84
2023/07/13 00:36:17;;;;;;;3.55;1.70;;;17.20;99.90;;;;;;5097220;28;20389;-83
2023/07/13 00:38:43;;;;;;;2.80;1.50;;;17.20;99.90;;;;;;5097030;28;20127;-83
2023/07/13 00:41:09;;;;;;;3.88;1.63;;;17.20;99.90;;;;;;5064530;28;20024;-83
2023/07/13 00:43:34;;;;;;;4.57;1.80;;;17.10;99.90;;;;;;5083862;28;20032;-82
2023/07/13 00:46:19;;;;;;;3.47;1.48;;;17.10;99.90;;;;;;5100705;28;20027;-82
2023/07/13 00:48:47;;;;;;;3.75;1.60;;;17.00;99.90;;;;;;5100748;28;20076;-82
2023/07/13 00:51:15;;;;;;;2.40;1.48;;;17.00;99.90;;;;;;5100684;28;20119;-82
2023/07/13 00:53:41;;;;;;;2.80;1.38;;;16.90;99.90;;;;;;5100260;28;20031;-83
2023/07/13 00:56:08;;;;;;;2.80;1.33;;;16.90;99.90;;;;;;5100550;28;20024;-82
2023/07/13 00:58:35;;;;;;;3.03;1.30;;;16.90;99.90;;;;;;5119180;28;20065;-82
2023/07/13 01:01:00;;;;;;;2.78;1.50;;;16.90;99.90;;;;;;5118640;28;20482;-82
2023/07/13 01:03:26;;;;;;;2.70;1.40;;;17.00;99.90;;;;;;5100431;28;20080;-82
2023/07/13 01:05:53;;;;;;;2.65;1.52;;;17.00;99.90;;;;;;5085509;28;20024;-82
2023/07/13 01:08:20;;;;;;;3.55;1.40;;;17.00;99.90;;;;;;5098876;28;20028;-82
2023/07/13 01:10:57;;;;;;;2.58;1.40;;;17.00;99.90;;;;;;5097490;28;20118;-82
2023/07/13 01:13:25;;;;;;;3.15;1.15;;;17.10;99.90;;;;;;5100212;28;20023;-82
2023/07/13 01:15:53;;;;;;;2.90;1.30;;;17.10;99.90;;;;;;5099985;28;20020;-83
2023/07/13 01:18:28;;;;;;;2.78;1.23;;;17.20;99.90;;;;;;5118223;28;20032;-83
2023/07/13 01:20:54;;;;;;;3.00;1.27;;;17.20;99.90;;;;;;5100568;28;20112;-83
2023/07/13 01:23:20;;;;;;;4.05;1.45;;;17.30;99.90;;;;;;5100414;28;20499;-84
2023/07/13 01:25:46;;;;;;;4.85;1.50;;;17.20;99.90;;;;;;5082677;28;20546;-83
2023/07/13 01:28:12;;;;;;;3.85;1.40;;;17.20;99.90;;;;;;5100441;28;20036;-82
2023/07/13 01:30:40;;;;;;;4.57;1.63;;;17.10;99.90;;;;;;5100206;28;20038;-82
2023/07/13 01:33:09;;;;;;;3.55;1.48;;;17.10;99.90;;;;;;5118208;28;20470;-83
2023/07/13 01:35:35;;;;;;;5.72;3.45;;;17.10;99.90;;;;;;5099963;28;20485;-83
2023/07/13 01:38:01;;;;;;;3.50;2.20;;;17.00;99.90;;;;;;5099595;28;20028;-82
2023/07/13 01:40:28;;;;;;;4.82;1.65;;;17.00;99.90;;;;;;5081112;28;20028;-82
2023/07/13 01:42:53;;;;;;;3.30;1.40;;;16.90;99.90;;;;;;5082106;28;20055;-82
2023/07/13 01:45:19;;;;;;;4.88;3.00;;;16.90;99.90;;;;;;5099119;28;20468;-83
2023/07/13 01:47:44;;;;;;;6.22;3.45;;;16.80;99.90;;;;;;5087591;28;20086;-83
2023/07/13 01:50:10;;;;;;;5.05;2.80;;;16.80;99.90;;;;;;5078070;28;20031;-82
2023/07/13 01:52:36;;;;;;;11.68;6.68;;;16.80;99.90;;;;;;5078283;28;20489;-82
2023/07/13 01:55:02;;;;;;;11.80;7.20;;;16.70;99.90;;;;;;5061388;28;20028;-83
2023/07/13 01:57:28;;;;;;;6.60;4.53;;;16.70;99.90;;;;;;5078217;28;20032;-83
2023/07/13 01:59:53;;;;;;;4.70;2.95;;;16.80;99.90;;;;;;5061411;28;20528;-83
2023/07/13 02:02:19;;;;;;;4.50;2.33;;;16.80;99.90;;;;;;5061318;28;20085;-82
2023/07/13 02:04:45;;;;;;;2.42;1.65;;;16.80;99.90;;;;;;5078171;28;20086;-83
2023/07/13 02:07:10;;;;;;;2.90;1.60;;;16.90;99.90;;;;;;5078100;28;20430;-83
2023/07/13 02:09:36;;;;;;;3.10;1.55;;;16.90;99.90;;;;;;5094905;28;20375;-84
2023/07/13 02:12:03;;;;;;;2.25;1.33;;;17.00;99.90;;;;;;5081266;28;20493;-83
2023/07/13 02:14:28;;;;;;;2.65;1.10;;;17.00;99.90;;;;;;5116312;28;20398;-83
2023/07/13 02:16:54;;;;;;;3.20;1.20;;;17.10;99.90;;;;;;5080847;28;20114;-83
2023/07/13 02:19:20;;;;;;;2.15;1.10;;;17.10;99.90;;;;;;5080910;28;20024;-83
2023/07/13 02:21:46;;;;;;;2.72;1.30;;;17.10;99.90;;;;;;5116086;28;20028;-83
2023/07/13 02:24:17;;;;;;;1.85;1.02;;;17.10;99.90;;;;;;5097981;28;20034;-83
2023/07/13 02:26:46;;;;;;;2.38;1.00;;;17.20;99.90;;;;;;5098188;28;20030;-83
2023/07/13 02:29:11;;;;;;;3.05;1.17;;;17.20;99.90;;;;;;5064590;28;20124;-83
2023/07/13 02:31:37;;;;;;;2.47;0.95;;;17.20;99.90;;;;;;5097292;28;20110;-83
2023/07/13 02:34:03;;;;;;;5.05;1.10;;;17.20;99.90;;;;;;5097377;28;20050;-83
2023/07/13 02:36:30;;;;;;;5.10;1.90;;;17.30;99.90;;;;;;5096978;28;20020;-83
2023/07/13 02:38:56;;;;;;;7.57;3.38;;;17.20;99.90;;;;;;5097614;28;20032;-83
2023/07/13 02:41:23;;;;;;;6.13;2.85;;;17.20;99.90;;;;;;5080461;28;20377;-83
2023/07/13 02:43:48;;;;;;;3.42;1.60;;;17.10;99.90;;;;;;5097940;28;20027;-83
2023/07/13 02:46:14;;;;;;;3.00;1.55;;;17.00;99.90;;;;;;5080386;28;20497;-83
2023/07/13 02:48:40;;;;;;;4.05;1.40;;;16.90;99.90;;;;;;5097729;28;20093;-83
2023/07/13 02:51:07;;;;;;;2.13;1.17;;;16.80;99.90;;;;;;5080406;28;20031;-83
2023/07/13 02:53:33;;;;;;;2.97;1.27;;;16.80;99.90;;;;;;5080294;28;20031;-83
2023/07/13 02:55:59;;;;;;;2.80;1.45;;;16.70;99.90;;;;;;5080009;28;20024;-83
2023/07/13 02:58:25;;;;;;;3.85;1.38;;;16.70;99.90;;;;;;5080240;28;20072;-83
2023/07/13 03:00:51;;;;;;;5.65;1.73;;;16.70;99.90;;;;;;5115590;28;20104;-83
2023/07/13 03:03:17;;;;;;;7.10;2.05;;;16.80;99.90;;;;;;5097135;28;20022;-83
2023/07/13 03:05:44;;;;;;;4.63;1.80;;;16.80;99.90;;;;;;5097224;28;20024;-83
2023/07/13 03:08:11;;;;;;;3.70;1.90;;;16.80;99.90;;;;;;5080007;28;20370;-83
2023/07/13 03:10:39;;;;;;;3.58;1.80;;;16.70;99.90;;;;;;5079990;28;20023;-83
2023/07/13 03:13:05;;;;;;;5.40;1.70;;;16.70;99.90;;;;;;5096425;28;20111;-83
2023/07/13 03:15:31;;;;;;;3.75;1.80;;;16.60;99.90;;;;;;5096935;28;20168;-83
2023/07/13 03:17:56;;;;;;;3.83;2.03;;;16.60;99.90;;;;;;5097015;28;20508;-83
2023/07/13 03:20:22;;;;;;;4.68;2.00;;;16.70;99.90;;;;;;5096311;28;20092;-83
2023/07/13 03:22:48;;;;;;;3.90;1.65;;;16.70;99.90;;;;;;5079735;28;20030;-83
2023/07/13 03:25:13;;;;;;;2.63;1.38;;;16.80;99.90;;;;;;5096922;28;20115;-83
2023/07/13 03:27:39;;;;;;;4.10;1.27;;;16.80;99.90;;;;;;5070992;28;20119;-83
2023/07/13 03:30:06;;;;;;;2.40;1.35;;;16.90;99.90;;;;;;5059717;28;20032;-83
2023/07/13 03:32:32;;;;;;;4.03;1.10;;;16.90;99.90;;;;;;5076388;28;20052;-83
2023/07/13 03:34:57;;;;;;;1.92;1.08;;;16.90;99.90;;;;;;5068950;28;20051;-83
2023/07/13 03:37:23;;;;;;;3.55;1.27;;;16.80;99.90;;;;;;5085586;28;20070;-83
2023/07/13 03:39:49;;;;;;;2.25;1.27;;;16.80;99.90;;;;;;5097893;28;20061;-83
2023/07/13 03:42:15;;;;;;;3.22;1.17;;;16.80;99.90;;;;;;5095617;28;20031;-83
2023/07/13 03:44:42;;;;;;;3.15;1.20;;;16.80;99.90;;;;;;5068220;28;20034;-83
2023/07/13 03:47:08;;;;;;;1.75;1.00;;;16.80;99.90;;;;;;5060215;28;20034;-83
2023/07/13 03:49:34;;;;;;;1.50;0.90;;;16.80;99.90;;;;;;5094780;28;20063;-82
2023/07/13 03:52:00;;;;;;;5.10;1.30;;;16.70;99.90;;;;;;5081003;28;20192;-83
2023/07/13 03:54:26;;;;;;;2.72;1.20;;;16.80;99.90;;;;;;5076150;28;20573;-83
2023/07/13 03:56:52;;;;;;;4.47;1.30;;;16.80;99.90;;;;;;5076262;28;20390;-83
2023/07/13 03:59:18;;;;;;;2.75;1.20;;;16.70;99.90;;;;;;5075146;28;20024;-83
2023/07/13 04:01:44;;;;;;;1.75;1.10;;;16.80;99.90;;;;;;5094227;28;20034;-83
2023/07/13 04:04:10;;;;;;;2.35;1.20;;;16.80;99.90;;;;;;5078166;28;20027;-82
2023/07/13 04:06:36;;;;;;;3.13;1.20;;;16.80;99.90;;;;;;5094918;28;20038;-83
2023/07/13 04:09:05;;;;;;;2.47;1.27;;;16.80;99.90;;;;;;5095258;28;20054;-82
2023/07/13 04:11:32;;;;;;;1.67;1.10;;;16.80;99.90;;;;;;5112732;28;20024;-82
2023/07/13 04:13:59;;;;;;;2.40;1.20;;;16.80;99.90;;;;;;5113641;28;20028;-83
2023/07/13 04:16:25;;;;;;;3.28;1.40;;;16.80;99.90;;;;;;5080176;28;20354;-83
2023/07/13 04:18:55;;;;;;;2.20;1.20;;;16.80;99.90;;;;;;5096270;28;20024;-83
2023/07/13 04:21:22;;;;;;;1.55;1.00;;;16.80;99.90;;;;;;5113534;28;20099;-83
2023/07/13 04:23:47;;;;;;;1.98;1.10;;;16.80;99.90;;;;;;5077321;28;20028;-82
2023/07/13 04:26:13;;;;;;;2.88;1.08;;;16.80;99.90;;;;;;5059290;28;20043;-83
2023/07/13 04:28:38;;;;;;;3.00;1.27;;;16.80;99.90;;;;;;5090473;28;20041;-83
2023/07/13 04:31:05;;;;;;;1.70;0.95;;;16.70;99.90;;;;;;5079756;28;20036;-82
2023/07/13 04:33:30;;;;;;;2.20;1.20;;;16.70;99.90;;;;;;5095068;28;20064;-82
2023/07/13 04:35:57;;;;;;;3.55;1.60;;;16.60;99.90;;;;;;5096768;28;20135;-82
2023/07/13 04:38:24;;;;;;;2.30;1.20;;;16.60;99.90;;;;;;5096601;28;20032;-82
2023/07/13 04:40:51;;;;;;;2.50;1.00;;;16.70;99.90;;;;;;5076567;28;20024;-82
2023/07/13 04:43:17;;;;;;;2.65;1.10;;;16.70;99.90;;;;;;5107096;28;20032;-82
2023/07/13 04:45:43;;;;;;;2.85;0.93;;;16.70;99.90;;;;;;5072949;28;20500;-82
2023/07/13 04:48:08;;;;;;;1.42;1.00;;;16.80;99.90;;;;;;5080324;28;20024;-82
2023/07/13 04:50:37;;;;;;;2.13;1.10;;;16.80;99.90;;;;;;5077125;28;20110;-83
2023/07/13 04:53:03;;;;;;;3.25;1.05;;;16.90;99.90;;;;;;5095301;28;20082;-82
2023/07/13 04:55:30;;;;;;;2.00;1.20;;;16.90;99.90;;;;;;5096946;28;20048;-82
2023/07/13 04:57:56;;;;;;;4.80;1.40;;;16.90;99.90;;;;;;5094776;28;20069;-82
2023/07/13 05:00:22;;;;;;;2.00;1.20;;;17.00;99.90;;;;;;5108642;28;20028;-82
2023/07/13 05:02:47;;;;;;;3.03;1.52;;;17.00;99.90;;;;;;5063104;28;20035;-81
2023/07/13 05:05:13;;;;;;;2.35;1.30;;;16.90;99.90;;;;;;5116086;28;20504;-82
2023/07/13 05:07:39;;;;;;;2.20;1.20;;;16.90;99.90;;;;;;5083072;28;20489;-82
2023/07/13 05:10:05;;;;;;;4.07;1.20;;;16.80;99.90;;;;;;5099370;28;20039;-82
2023/07/13 05:12:31;;;;;;;2.80;1.30;;;16.80;99.90;;;;;;5094810;28;20059;-82
2023/07/13 05:14:57;;;;;;;2.92;1.77;;;16.80;99.90;;;;;;5118482;28;20073;-82
2023/07/13 05:17:22;;;;;;;3.42;1.70;;;16.80;99.90;;;;;;5092539;28;20027;-82
2023/07/13 05:19:48;;;;;;;3.28;1.92;;;16.70;99.90;;;;;;5080348;28;20020;-82
2023/07/13 05:22:13;;;;;;;3.10;1.80;;;16.70;99.90;;;;;;5063342;28;20029;-82
2023/07/13 05:24:39;;;;;;;3.25;1.70;;;16.70;99.90;;;;;;5063796;28;20119;-82
2023/07/13 05:27:05;;;;;;;2.72;1.63;;;16.70;99.90;;;;;;5092950;28;20074;-82
2023/07/13 05:29:31;;;;;;;3.15;1.60;;;16.70;99.90;;;;;;5100006;28;20035;-82
2023/07/13 05:31:57;;;;;;;2.70;1.70;;;16.70;99.90;;;;;;5081654;28;20059;-83
2023/07/13 05:34:23;;;;;;;4.05;1.70;;;16.70;99.90;;;;;;5091377;28;20036;-82
2023/07/13 05:36:49;;;;;;;2.90;1.45;;;16.70;99.90;;;;;;5088660;28;20405;-82
2023/07/13 05:39:15;;;;;;;3.47;1.50;;;16.80;99.90;;;;;;5105461;28;20021;-82
2023/07/13 05:41:41;;;;;;;2.67;1.60;;;16.80;99.90;;;;;;5094973;28;20035;-81
2023/07/13 05:44:07;;;;;;;2.08;1.38;;;16.80;99.90;;;;;;5085652;28;20040;-81
2023/07/13 05:46:33;;;;;;;2.83;1.52;;;16.80;99.90;;;;;;5079066;28;20028;-82
2023/07/13 05:48:59;;;;;;;2.83;1.55;;;16.90;99.90;;;;;;5079475;28;20032;-81
2023/07/13 05:51:24;;;;;;;3.13;1.48;;;16.90;99.90;;;;;;5079794;28;20096;-80
2023/07/13 05:53:50;;;;;;;3.75;1.58;;;16.90;99.90;;;;;;5095606;28;20068;-81
2023/07/13 05:56:16;;;;;;;4.15;1.50;;;17.00;99.90;;;;;;5097857;28;20051;-82
2023/07/13 05:58:42;;;;;;;3.38;1.40;;;17.10;99.90;;;;;;5090963;28;20020;-82
2023/07/13 06:01:11;;;;;;;2.28;1.52;;;17.20;99.90;;;;;;5085453;28;20034;-82
2023/07/13 06:03:39;;;;;;;3.65;1.67;;;17.30;99.90;;;;;;5114853;28;20035;-81
2023/07/13 06:06:07;;;;;;;3.13;1.60;;;17.40;99.90;;;;;;5099639;28;20036;-82
2023/07/13 06:08:32;;;;;;;3.28;1.48;;;17.50;99.90;;;;;;5082458;28;20027;-82
2023/07/13 06:11:18;;;;;;;2.65;1.27;;;17.50;99.90;;;;;;5081707;28;20027;-80
2023/07/13 06:13:44;;;;;;;2.38;1.30;;;17.50;99.90;;;;;;5097296;28;20085;-82
2023/07/13 06:16:11;;;;;;;2.97;1.20;;;17.50;99.90;;;;;;5097758;28;20056;-81
2023/07/13 06:18:37;;;;;;;3.38;1.30;;;17.60;99.90;;;;;;5097293;28;20032;-81
2023/07/13 06:21:11;;;;;;;2.40;1.50;;;17.60;99.90;;;;;;5097322;28;20043;-81
2023/07/13 06:23:37;;;;;;;2.50;1.50;;;17.70;99.90;;;;;;5079423;28;20070;-81
2023/07/13 06:26:04;;;;;;;2.20;1.15;;;17.80;99.90;;;;;;5096905;28;20165;-81
2023/07/13 06:28:31;;;;;;;2.08;1.30;;;17.80;99.90;;;;;;5080034;28;20024;-81
2023/07/13 06:31:00;;;;;;;3.05;1.67;;;17.90;99.90;;;;;;5098106;28;20032;-81
2023/07/13 06:33:26;;;;;;;2.85;1.13;;;17.90;99.90;;;;;;5078738;28;20230;-81
2023/07/13 06:35:52;;;;;;;3.47;1.60;;;18.00;99.90;;;;;;5089614;28;20486;-81
2023/07/13 06:38:17;;;;;;;2.63;1.35;;;18.00;99.90;;;;;;5098782;28;20023;-81
2023/07/13 06:40:43;;;;;;;3.22;1.40;;;18.10;99.90;;;;;;5117168;28;20029;-81
2023/07/13 06:43:09;;;;;;;2.03;1.20;;;18.10;99.90;;;;;;5081477;28;20043;-81
2023/07/13 06:45:48;;;;;;;2.13;1.20;;;18.20;99.90;;;;;;5098769;28;20498;-81
2023/07/13 06:48:19;;;;;;;2.25;1.00;;;18.20;99.90;;;;;;5098970;28;20027;-81
2023/07/13 06:50:45;;;;;;;2.58;1.52;;;18.20;99.90;;;;;;5117044;28;20023;-81
2023/07/13 06:53:12;;;;;;;3.33;1.30;;;18.30;99.90;;;;;;5117351;28;20035;-81
2023/07/13 06:55:38;;;;;;;2.92;1.30;;;18.40;99.90;;;;;;5117168;28;20028;-81
2023/07/13 06:58:04;;;;;;;3.00;1.30;;;18.50;99.90;;;;;;5116825;28;20027;-82
2023/07/13 07:00:30;;;;;;;2.58;1.50;;;18.60;99.90;;;;;;5098839;28;20019;-81
2023/07/13 07:02:56;;;;;;;3.13;1.38;;;18.60;99.90;;;;;;5099378;28;20118;-82
2023/07/13 07:05:22;;;;;;;1.77;1.05;;;18.60;99.90;;;;;;5099174;28;20043;-82
2023/07/13 07:07:52;;;;;;;2.50;1.20;;;18.70;99.90;;;;;;5099548;28;20031;-82
2023/07/13 07:10:18;;;;;;;1.63;0.95;;;18.80;99.90;;;;;;5079540;28;20032;-81
2023/07/13 07:12:44;;;;;;;3.17;1.40;;;18.90;99.90;;;;;;5094036;28;20062;-82
2023/07/13 07:15:10;;;;;;;3.50;1.27;;;18.90;99.90;;;;;;5083909;28;20032;-81
2023/07/13 07:17:36;;;;;;;2.30;1.23;;;19.00;99.90;;;;;;5078585;28;20052;-81
2023/07/13 07:20:03;;;;;;;2.45;1.35;;;19.00;99.90;;;;;;5096894;28;20031;-81
2023/07/13 07:22:30;;;;;;;2.00;0.98;;;19.10;99.90;;;;;;5115014;28;20032;-81
2023/07/13 07:24:56;;;;;;;2.97;1.30;;;19.20;99.90;;;;;;5081851;28;20504;-81
2023/07/13 07:27:22;;;;;;;2.15;1.10;;;19.30;99.90;;;;;;5092576;28;20171;-81
2023/07/13 07:29:48;;;;;;;2.30;1.30;;;19.30;99.90;;;;;;5107383;28;20107;-82
2023/07/13 07:32:14;;;;;;;4.03;1.30;;;19.40;99.90;;;;;;5097761;28;20067;-81
2023/07/13 07:34:39;;;;;;;3.63;1.33;;;19.40;99.90;;;;;;5069472;28;20024;-81
2023/07/13 07:37:05;;;;;;;2.30;1.27;;;19.30;99.90;;;;;;5095485;28;20517;-81
2023/07/13 07:39:31;;;;;;;1.95;1.10;;;19.40;99.90;;;;;;5101628;28;20051;-81
2023/07/13 07:41:57;;;;;;;2.90;1.10;;;19.40;99.90;;;;;;5098224;28;20042;-81
2023/07/13 07:44:23;;;;;;;3.92;1.40;;;19.30;99.90;;;;;;5099785;28;20034;-81
2023/07/13 07:46:49;;;;;;;2.80;1.30;;;19.40;99.90;;;;;;5081625;28;20028;-80
2023/07/13 07:49:15;;;;;;;3.00;1.10;;;19.40;99.90;;;;;;5074904;28;20031;-81
2023/07/13 07:51:40;;;;;;;2.22;1.30;;;19.30;99.90;;;;;;5067358;28;20062;-81
2023/07/13 07:54:06;;;;;;;3.05;1.40;;;19.40;99.90;;;;;;5116045;28;20505;-81
2023/07/13 07:56:32;;;;;;;5.43;1.20;;;19.40;99.90;;;;;;5093292;28;20524;-81
2023/07/13 07:58:58;;;;;;;2.45;1.15;;;19.40;99.90;;;;;;5099077;28;20055;-81
2023/07/13 08:01:24;;;;;;;1.90;1.13;;;19.30;99.90;;;;;;5108962;28;20085;-80
2023/07/13 08:03:49;;;;;;;2.13;1.05;;;19.30;99.90;;;;;;5107139;28;20066;-81
2023/07/13 08:06:15;;;;;;;2.72;1.38;;;19.30;99.90;;;;;;5097052;28;20464;-81
2023/07/13 08:08:41;;;;;;;2.10;0.93;;;19.30;99.90;;;;;;5115837;28;20019;-81
2023/07/13 08:11:08;;;;;;;3.13;1.15;;;19.40;99.90;;;;;;5097748;28;20038;-82
2023/07/13 08:13:34;;;;;;;1.92;1.30;;;19.50;99.90;;;;;;5116121;28;20020;-81
2023/07/13 08:16:00;;;;;;;5.75;1.30;;;19.50;99.90;;;;;;5117299;28;20370;-81
2023/07/13 08:18:28;;;;;;;2.20;1.33;;;19.50;99.90;;;;;;5107016;28;20029;-81
2023/07/13 08:20:56;;;;;;;3.30;1.30;;;19.60;99.90;;;;;;5077979;28;20027;-81
2023/07/13 08:23:22;;;;;;;5.53;2.30;;;19.60;99.90;;;;;;5095756;28;20043;-81
2023/07/13 08:25:54;;;;;;;3.50;2.40;;;19.70;99.90;;;;;;5110808;28;20381;-80
2023/07/13 08:28:23;;;;;;;5.18;2.58;;;19.70;99.90;;;;;;5114371;28;20020;-81
2023/07/13 08:30:49;;;;;;;5.07;2.20;;;19.70;99.90;;;;;;5096030;28;20028;-81
2023/07/13 08:33:19;;;;;;;4.32;2.20;;;19.70;99.90;;;;;;5079382;28;20030;-81
2023/07/13 08:35:48;;;;;;;4.75;2.33;;;19.70;99.90;;;;;;5097126;28;20072;-81
2023/07/13 08:38:15;;;;;;;4.32;2.22;;;19.60;99.90;;;;;;5119369;28;20031;-81
2023/07/13 08:40:42;;;;;;;3.88;2.30;;;19.60;99.90;;;;;;5084441;28;20024;-81
2023/07/13 08:43:17;;;;;;;2.67;1.80;;;19.60;99.90;;;;;;5119092;28;20605;-81
2023/07/13 08:46:13;;;;;;;3.45;2.28;;;19.60;99.90;;;;;;5118961;28;20127;-81
2023/07/13 08:48:47;;;;;;;3.55;2.22;;;19.60;99.90;;;;;;5100867;28;20093;-81
2023/07/13 08:51:35;;;;;;;4.40;2.30;;;19.70;99.90;;;;;;5118826;28;20015;-80
2023/07/13 08:54:31;;;;;;;2.78;2.00;;;19.70;99.90;;;;;;5119348;28;20047;-81
2023/07/13 08:57:02;;;;;;;6.82;2.90;;;19.70;99.90;;;;;;5098034;28;20043;-81
2023/07/13 08:59:31;;;;;;;4.43;2.42;;;19.80;99.90;;;;;;5118678;28;20015;-80
2023/07/13 09:02:00;;;;;;;2.85;2.05;;;19.80;99.90;;;;;;5118854;28;20362;-81
2023/07/13 09:04:34;;;;;;;3.03;1.92;;;19.90;99.90;;;;;;5119218;28;20027;-81
2023/07/13 09:07:06;;;;;;;3.55;1.90;;;20.00;99.90;;;;;;5114941;28;20501;-80
2023/07/13 09:09:59;;;;;;;3.08;2.15;;;20.00;99.90;;;;;;5111037;28;20536;-80
2023/07/13 09:12:31;;;;;;;3.17;2.10;;;20.10;99.90;;;;;;5118927;28;20030;-80
2023/07/13 09:14:59;;;;;;;5.13;3.00;;;20.20;99.90;;;;;;5119007;28;20097;-80
2023/07/13 09:17:33;;;;;;;5.75;3.40;;;20.30;99.90;;;;;;5100964;28;20023;-80
2023/07/13 09:20:10;;;;;;;5.28;2.97;;;20.40;99.90;;;;;;5119178;28;20047;-80
2023/07/13 09:22:37;;;;;;;4.18;2.70;;;20.40;99.90;;;;;;5101087;28;20047;-81
2023/07/13 09:25:32;;;;;;;3.72;2.15;;;20.40;99.90;;;;;;5111366;28;20034;-80
2023/07/13 09:28:23;;;;;;;5.32;2.75;;;20.40;99.90;;;;;;5079898;28;20393;-80
2023/07/13 09:31:23;;;;;;;5.75;2.63;;;20.40;99.90;;;;;;5092876;28;20478;-80
2023/07/13 09:33:50;;;;;;;4.40;2.78;;;20.40;99.90;;;;;;5097755;28;20493;-80
2023/07/13 09:36:21;;;;;;;4.68;2.30;;;20.40;99.90;;;;;;5098106;28;20070;-80
2023/07/13 09:38:49;;;;;;;4.32;2.72;;;20.40;99.90;;;;;;5097983;28;20047;-80
2023/07/13 09:41:21;;;;;;;6.13;2.90;;;20.30;99.90;;;;;;5099408;28;20093;-81
2023/07/13 09:44:12;;;;;;;3.88;2.10;;;20.40;99.90;;;;;;5118117;28;20046;-81
2023/07/13 09:46:39;;;;;;;;;;;20.40;99.90;;;;;;5118337;28;20077;-81
2023/07/13 09:49:04;;;;;;;4.05;2.30;;;20.40;99.90;;;;;;5100358;28;20392;-80
2023/07/13 09:51:30;;;;;;;5.00;3.13;;;20.50;99.90;;;;;;5117555;28;20031;-81
2023/07/13 09:53:57;;;;;;;4.47;2.50;;;20.50;99.90;;;;;;5082554;28;20091;-81
2023/07/13 09:56:26;;;;;;;4.05;2.65;;;20.60;99.90;;;;;;5099195;28;20028;-80
2023/07/13 09:58:53;;;;;;;4.35;3.00;;;20.70;99.90;;;;;;5117449;28;20505;-80
2023/07/13 10:01:37;;;;;;;4.57;2.88;;;20.80;99.90;;;;;;5117822;28;20023;-80
2023/07/13 10:04:12;;;;;;;5.15;2.47;;;20.90;99.90;;;;;;5114263;28;20054;-80
2023/07/13 10:06:42;;;;;;;3.63;2.05;;;20.90;99.90;;;;;;5098988;28;20031;-81
2023/07/13 10:09:09;;;;;;;3.40;1.50;;;20.90;99.90;;;;;;5100793;28;20032;-82
2023/07/13 10:11:37;;;;;;;3.25;1.80;;;20.90;99.90;;;;;;5119562;28;20023;-81
2023/07/13 10:14:17;;;;;;;2.47;1.48;;;20.90;99.90;;;;;;5118293;28;20481;-81
2023/07/13 10:16:45;;;;;;;3.38;1.60;;;20.80;99.90;;;;;;5119155;28;20051;-81
2023/07/13 10:19:26;;;;;;;2.80;1.50;;;20.80;99.90;;;;;;5119585;28;20028;-81
2023/07/13 10:22:01;;;;;;;4.43;1.73;;;20.90;99.90;;;;;;5100722;28;20385;-81
2023/07/13 10:24:37;;;;;;;2.45;1.30;;;20.80;99.90;;;;;;5121470;28;20110;-82
2023/07/13 10:27:07;;;;;;;2.40;1.50;;;20.90;99.90;;;;;;5101412;28;20026;-81
2023/07/13 10:29:48;;;;;;;2.30;1.40;;;20.80;99.90;;;;;;5119926;28;20389;-81
2023/07/13 10:32:14;;;;;;;2.25;1.40;;;20.70;99.90;;;;;;5113523;28;20529;-82
2023/07/13 10:34:45;;;;;;;3.42;1.50;;;20.60;99.90;;;;;;5080478;28;20033;-82
2023/07/13 10:37:24;;;;;;;2.47;1.40;;;20.60;99.90;;;;;;5092428;28;20044;-81
2023/07/13 10:39:53;;;;;;;3.30;1.30;;;20.60;99.90;;;;;;5083578;28;20024;-81
2023/07/13 10:42:30;;;;;;;3.20;1.30;;;20.40;99.90;;;;;;5115792;28;20030;-81
2023/07/13 10:44:56;;;;;;;3.72;1.48;;;20.40;99.90;;;;;;5097637;28;20078;-81
2023/07/13 10:47:22;;;;;;;4.10;1.60;;;20.30;99.90;;;;;;5116984;28;20481;-81
2023/07/13 10:49:53;;;;;;;3.95;2.00;;;20.20;99.90;;;;;;5064811;28;20111;-80
2023/07/13 10:52:50;;;;;;;4.97;1.60;;;20.20;99.90;;;;;;5098788;28;20031;-80
2023/07/13 10:55:54;;;;;;;2.85;1.80;;;20.10;99.90;;;;;;5116929;28;20050;-80
2023/07/13 10:58:28;;;;;;;4.43;1.90;;;20.10;99.90;;;;;;5083999;28;20031;-81
2023/07/13 11:01:03;;;;;;;7.22;4.55;;;20.00;99.90;;;;;;5116694;28;20466;-81
2023/07/13 11:03:31;;;;;;;5.40;3.22;;;19.80;99.90;;;;;;5116434;28;20489;-81
2023/07/13 11:06:18;;;;;;;3.42;1.83;;;19.80;99.90;;;;;;5097006;28;20098;-80
2023/07/13 11:08:47;;;;;;;3.10;1.77;;;19.60;99.90;;;;;;5116625;28;20473;-81
2023/07/13 11:11:25;;;;;;;4.78;2.10;;;19.60;99.90;;;;;;5097137;28;20470;-81
2023/07/13 11:13:50;;;;;;;3.13;1.83;;;19.50;99.90;;;;;;5096011;28;20038;-81
2023/07/13 11:16:22;;;;;;;3.00;1.85;;;19.50;99.90;;;;;;5096991;28;20024;-81
2023/07/13 11:18:49;;;;;;;3.03;1.60;;;19.50;99.90;;;;;;5115452;28;20027;-82
2023/07/13 11:21:28;;;;;;;5.10;1.48;;;19.50;99.90;;;;;;5114250;28;20243;-81
2023/07/13 11:24:04;;;;;;;5.10;1.85;;;19.50;99.90;;;;;;5098085;28;20020;-81
2023/07/13 11:26:47;;;;;;;3.50;1.55;;;19.50;99.90;;;;;;5097558;28;20020;-82
2023/07/13 11:29:31;;;;;;;3.42;1.95;;;19.40;99.90;;;;;;5097026;28;20033;-83
2023/07/13 11:31:59;;;;;;;4.38;1.60;;;19.20;99.90;;;;;;5096636;28;20023;-83
2023/07/13 11:34:36;;;;;;;4.60;1.85;;;19.10;99.90;;;;;;5115309;28;20024;-83
2023/07/13 11:37:02;;;;;;;2.42;1.42;;;18.90;99.90;;;;;;5115388;28;20497;-82
2023/07/13 11:39:32;;;;;;;3.42;1.63;;;18.70;99.90;;;;;;5080387;28;20031;-83
2023/07/13 11:42:04;;;;;;;3.50;1.88;;;18.60;99.90;;;;;;5096714;28;20031;-83
2023/07/13 11:44:34;;;;;;;5.07;1.70;;;18.50;99.90;;;;;;5097488;28;20059;-83
2023/07/13 11:47:11;;;;;;;2.95;1.63;;;18.50;99.90;;;;;;5097083;28;20408;-84
2023/07/13 11:49:46;;;;;;;5.45;1.50;;;18.50;99.90;;;;;;5097881;28;20175;-83
2023/07/13 11:52:16;;;;;;;3.97;1.40;;;18.50;99.90;;;;;;5081879;28;20032;-84
2023/07/13 11:54:57;;;;;;;5.50;1.60;;;18.40;99.90;;;;;;5116331;28;20106;-83
2023/07/13 11:57:27;;;;;;;3.75;1.42;;;18.40;99.90;;;;;;5116689;28;20069;-83
2023/07/13 11:59:55;;;;;;;3.17;1.75;;;18.40;99.90;;;;;;5098571;28;20024;-82
2023/07/13 12:02:30;;;;;;;4.90;2.08;;;18.40;99.90;;;;;;5098966;28;20020;-82
2023/07/13 12:04:56;;;;;;;4.68;2.15;;;18.50;99.90;;;;;;5117056;28;20102;-82
2023/07/13 12:07:22;;;;;;;2.80;1.67;;;18.50;99.90;;;;;;5081254;28;20032;-82
2023/07/13 12:09:50;;;;;;;3.00;1.92;;;18.50;99.90;;;;;;5118244;28;20031;-82
2023/07/13 12:12:22;;;;;;;3.10;1.95;;;18.50;99.90;;;;;;5085550;28;20120;-82
2023/07/13 12:14:51;;;;;;;4.03;1.77;;;18.60;99.90;;;;;;5100502;28;20027;-83
2023/07/13 12:17:25;;;;;;;4.25;1.95;;;18.60;99.90;;;;;;5100258;28;20489;-84
2023/07/13 12:19:54;;;;;;;3.33;1.83;;;18.70;99.90;;;;;;5084428;28;20057;-83
2023/07/13 12:22:20;;;;;;;2.88;2.00;;;18.90;99.90;;;;;;5085503;28;20077;-84
2023/07/13 12:24:48;;;;;;;2.88;1.90;;;19.00;99.90;;;;;;5096411;28;20023;-83
2023/07/13 12:27:28;;;;;;;3.97;1.80;;;19.10;99.90;;;;;;5088071;28;20032;-84
2023/07/13 12:30:05;;;;;;;2.40;1.48;;;19.30;99.90;;;;;;5083624;28;20043;-83
2023/07/13 12:32:31;;;;;;;5.40;2.00;;;19.50;99.90;;;;;;5098145;28;20073;-84
2023/07/13 12:35:20;;;;;;;6.32;2.42;;;19.80;99.90;;;;;;5085647;28;20083;-84
2023/07/13 12:37:48;;;;;;;4.70;2.58;;;20.00;99.90;;;;;;5095896;28;20043;-82
2023/07/13 12:40:20;;;;;;;3.45;2.10;;;20.40;99.90;;;;;;5072359;28;20049;-83
2023/07/13 12:42:48;;;;;;;3.63;1.80;;;20.50;99.90;;;;;;5081221;28;20051;-82
2023/07/13 12:45:18;;;;;;;4.03;1.65;;;20.50;99.90;;;;;;5104514;28;20038;-83
2023/07/13 12:47:48;;;;;;;3.22;1.52;;;20.50;99.90;;;;;;5101918;28;20024;-83
2023/07/13 12:50:17;;;;;;;4.85;1.95;;;20.60;99.90;;;;;;5094477;28;20473;-84
2023/07/13 12:52:44;;;;;;;2.90;1.90;;;20.70;99.90;;;;;;5111761;28;20031;-83
2023/07/13 12:55:17;;;;;;;4.55;1.90;;;20.80;99.90;;;;;;5114836;28;20028;-83
2023/07/13 12:57:55;;;;;;;2.95;1.50;;;21.00;99.90;;;;;;5080814;28;20535;-83